createdAt,value
2022-11-24T00:01:12.950Z,100.00
2022-11-24T00:03:40.314Z,100.00
2022-11-24T00:06:15.234Z,100.00
2022-11-24T00:08:44.949Z,100.00
2022-11-24T00:11:17.963Z,100.00
2022-11-24T00:13:45.919Z,100.00
2022-11-24T00:16:17.531Z,100.00
2022-11-24T00:18:47.711Z,100.00
2022-11-24T00:21:16.944Z,100.00
2022-11-24T00:23:44.500Z,100.00
2022-11-24T00:26:15.816Z,100.00
2022-11-24T00:28:44.578Z,100.00
2022-11-24T00:31:19.222Z,100.00
2022-11-24T00:33:47.773Z,100.00
2022-11-24T00:36:16.940Z,100.00
2022-11-24T00:38:44.483Z,100.00
2022-11-24T00:41:12.096Z,100.00
2022-11-24T00:43:39.176Z,100.00
2022-11-24T00:46:06.411Z,100.00
2022-11-24T00:48:33.781Z,100.00
2022-11-24T00:51:03.431Z,100.00
2022-11-24T00:53:30.907Z,100.00
2022-11-24T00:55:58.544Z,100.00
2022-11-24T00:58:26.308Z,100.00
2022-11-24T01:00:53.434Z,100.00
2022-11-24T01:03:21.422Z,100.00
2022-11-24T01:05:48.925Z,100.00
2022-11-24T01:08:16.204Z,100.00
2022-11-24T01:10:43.542Z,100.00
2022-11-24T01:13:12.113Z,100.00
2022-11-24T01:15:39.673Z,100.00
2022-11-24T01:18:06.975Z,100.00
2022-11-24T01:20:34.025Z,100.00
2022-11-24T01:23:00.981Z,100.00
2022-11-24T01:25:28.363Z,100.00
2022-11-24T01:27:55.340Z,100.00
2022-11-24T01:30:23.107Z,100.00
2022-11-24T01:32:50.409Z,100.00
2022-11-24T01:35:17.520Z,100.00
2022-11-24T01:37:44.496Z,100.00
2022-11-24T01:40:12.278Z,100.00
2022-11-24T01:42:51.164Z,100.00
2022-11-24T01:45:28.545Z,100.00
2022-11-24T01:47:56.147Z,100.00
2022-11-24T01:50:23.972Z,100.00
2022-11-24T01:52:54.231Z,100.00
2022-11-24T01:55:25.793Z,100.00
2022-11-24T01:58:01.321Z,100.00
2022-11-24T02:00:28.449Z,100.00
2022-11-24T02:02:58.958Z,100.00
2022-11-24T02:05:28.337Z,100.00
2022-11-24T02:07:59.713Z,100.00
2022-11-24T02:10:27.071Z,100.00
2022-11-24T02:12:58.153Z,100.00
2022-11-24T02:15:25.515Z,100.00
2022-11-24T02:17:52.836Z,100.00
2022-11-24T02:20:20.041Z,100.00
2022-11-24T02:22:57.020Z,100.00
2022-11-24T02:25:49.116Z,100.00
2022-11-24T02:28:21.161Z,100.00
2022-11-24T02:30:50.299Z,100.00
2022-11-24T02:33:18.179Z,100.00
2022-11-24T02:35:45.188Z,100.00
2022-11-24T02:38:16.330Z,100.00
2022-11-24T02:40:46.989Z,100.00
2022-11-24T02:43:19.705Z,100.00
2022-11-24T02:45:47.125Z,100.00
2022-11-24T02:48:15.670Z,100.00
2022-11-24T02:50:42.763Z,100.00
2022-11-24T02:53:09.878Z,100.00
2022-11-24T02:55:37.200Z,100.00
2022-11-24T02:58:04.360Z,100.00
2022-11-24T03:00:31.431Z,100.00
2022-11-24T03:02:58.879Z,100.00
2022-11-24T03:05:25.924Z,100.00
2022-11-24T03:07:52.968Z,100.00
2022-11-24T03:10:20.301Z,100.00
2022-11-24T03:12:47.281Z,100.00
2022-11-24T03:15:14.350Z,100.00
2022-11-24T03:17:41.817Z,100.00
2022-11-24T03:20:09.687Z,100.00
2022-11-24T03:22:37.231Z,100.00
2022-11-24T03:25:05.352Z,100.00
2022-11-24T03:27:32.666Z,100.00
2022-11-24T03:29:59.646Z,100.00
2022-11-24T03:32:27.071Z,100.00
2022-11-24T03:34:54.055Z,100.00
2022-11-24T03:37:21.120Z,100.00
2022-11-24T03:39:48.745Z,100.00
2022-11-24T03:42:16.286Z,100.00
2022-11-24T03:44:43.286Z,100.00
2022-11-24T03:47:11.636Z,100.00
2022-11-24T03:49:39.134Z,100.00
2022-11-24T03:52:08.444Z,100.00
2022-11-24T03:54:36.052Z,100.00
2022-11-24T03:57:03.257Z,100.00
2022-11-24T03:59:30.314Z,100.00
2022-11-24T04:01:57.583Z,100.00
2022-11-24T04:04:25.139Z,100.00
2022-11-24T04:06:52.282Z,100.00
2022-11-24T04:09:19.270Z,100.00
2022-11-24T04:12:05.073Z,100.00
2022-11-24T04:14:32.316Z,100.00
2022-11-24T04:16:59.870Z,100.00
2022-11-24T04:19:27.854Z,100.00
2022-11-24T04:21:55.032Z,100.00
2022-11-24T04:24:22.316Z,100.00
2022-11-24T04:26:49.335Z,100.00
2022-11-24T04:29:16.297Z,100.00
2022-11-24T04:31:43.679Z,100.00
2022-11-24T04:34:11.406Z,100.00
2022-11-24T04:36:40.998Z,100.00
2022-11-24T04:39:24.086Z,100.00
2022-11-24T04:41:53.177Z,100.00
2022-11-24T04:44:20.515Z,100.00
2022-11-24T04:46:47.623Z,100.00
2022-11-24T04:49:14.752Z,100.00
2022-11-24T04:51:42.456Z,100.00
2022-11-24T04:54:13.879Z,100.00
2022-11-24T04:56:41.761Z,100.00
2022-11-24T04:59:13.626Z,100.00
2022-11-24T05:01:45.086Z,100.00
2022-11-24T05:04:14.579Z,100.00
2022-11-24T05:06:41.924Z,100.00
2022-11-24T05:09:16.098Z,100.00
2022-11-24T05:11:44.433Z,100.00
2022-11-24T05:14:11.427Z,100.00
2022-11-24T05:16:38.455Z,100.00
2022-11-24T05:19:05.738Z,100.00
2022-11-24T05:21:32.767Z,100.00
2022-11-24T05:23:59.772Z,100.00
2022-11-24T05:26:27.466Z,100.00
2022-11-24T05:28:54.476Z,100.00
2022-11-24T05:31:21.509Z,100.00
2022-11-24T05:33:49.058Z,100.00
2022-11-24T05:36:54.483Z,100.00
2022-11-24T05:39:21.900Z,100.00
2022-11-24T05:41:48.911Z,100.00
2022-11-24T05:44:15.888Z,100.00
2022-11-24T05:46:43.231Z,100.00
2022-11-24T05:49:10.260Z,100.00
2022-11-24T05:51:37.437Z,100.00
2022-11-24T05:54:04.779Z,100.00
2022-11-24T05:56:31.767Z,100.00
2022-11-24T05:58:58.774Z,100.00
2022-11-24T06:01:26.116Z,100.00
2022-11-24T06:03:53.415Z,100.00
2022-11-24T06:06:20.495Z,100.00
2022-11-24T06:08:47.530Z,100.00
2022-11-24T06:11:17.663Z,100.00
2022-11-24T06:13:46.694Z,100.00
2022-11-24T06:16:14.894Z,100.00
2022-11-24T06:18:42.433Z,100.00
2022-11-24T06:21:11.286Z,100.00
2022-11-24T06:23:39.405Z,100.00
2022-11-24T06:26:06.926Z,100.00
2022-11-24T06:28:33.923Z,100.00
2022-11-24T06:31:05.090Z,100.00
2022-11-24T06:33:37.134Z,100.00
2022-11-24T06:36:07.367Z,100.00
2022-11-24T06:38:36.147Z,100.00
2022-11-24T06:41:06.382Z,100.00
2022-11-24T06:43:34.626Z,100.00
2022-11-24T06:46:02.679Z,100.00
2022-11-24T06:48:30.255Z,100.00
2022-11-24T06:51:02.254Z,100.00
2022-11-24T06:53:37.769Z,100.00
2022-11-24T06:56:12.161Z,100.00
2022-11-24T06:58:43.362Z,100.00
2022-11-24T07:01:17.927Z,100.00
2022-11-24T07:03:45.547Z,100.00
2022-11-24T07:06:12.630Z,100.00
2022-11-24T07:08:39.694Z,100.00
2022-11-24T07:11:08.714Z,100.00
2022-11-24T07:13:35.969Z,100.00
2022-11-24T07:16:14.779Z,100.00
2022-11-24T07:18:43.597Z,94.77
2022-11-24T07:21:11.274Z,88.84
2022-11-24T07:23:38.453Z,74.93
2022-11-24T07:26:07.709Z,70.95
2022-11-24T07:28:36.839Z,58.50
2022-11-24T07:31:08.664Z,61.86
2022-11-24T07:33:36.412Z,67.18
2022-11-24T07:36:05.292Z,74.37
2022-11-24T07:38:33.326Z,79.18
2022-11-24T07:41:10.070Z,80.85
2022-11-24T07:43:38.331Z,86.25
2022-11-24T07:46:08.583Z,87.89
2022-11-24T07:48:35.655Z,87.30
2022-11-24T07:51:04.588Z,90.47
2022-11-24T07:53:32.846Z,92.32
2022-11-24T07:56:01.827Z,92.81
2022-11-24T07:58:32.855Z,95.26
2022-11-24T08:01:09.590Z,96.56
2022-11-24T08:03:37.302Z,95.93
2022-11-24T08:08:51.736Z,96.21
2022-11-24T08:11:18.800Z,96.58
2022-11-24T08:13:46.015Z,95.97
2022-11-24T08:16:15.713Z,96.96
2022-11-24T08:18:43.733Z,97.06
2022-11-24T08:21:14.487Z,96.87
2022-11-24T08:23:42.021Z,96.80
2022-11-24T08:26:13.836Z,97.40
2022-11-24T08:28:40.908Z,98.51
2022-11-24T08:31:14.034Z,98.33
2022-11-24T08:33:41.965Z,97.18
2022-11-24T08:36:14.130Z,97.91
2022-11-24T08:38:41.834Z,98.05
2022-11-24T08:41:11.724Z,98.58
2022-11-24T08:43:39.209Z,98.97
2022-11-24T08:46:09.065Z,98.09
2022-11-24T08:48:37.161Z,98.04
2022-11-24T08:51:13.075Z,97.60
2022-11-24T08:53:40.868Z,96.69
2022-11-24T08:56:09.287Z,96.50
2022-11-24T08:58:37.346Z,96.87
2022-11-24T09:01:16.102Z,98.11
2022-11-24T09:03:50.352Z,97.40
2022-11-24T09:06:19.614Z,98.00
2022-11-24T09:08:46.926Z,96.96
2022-11-24T09:11:15.232Z,96.39
2022-11-24T09:13:43.304Z,96.13
2022-11-24T09:16:15.843Z,94.96
2022-11-24T09:18:43.228Z,94.82
2022-11-24T09:21:19.339Z,96.12
2022-11-24T09:23:48.845Z,96.15
2022-11-24T09:26:19.222Z,94.22
2022-11-24T09:28:47.176Z,95.00
2022-11-24T09:31:17.348Z,95.25
2022-11-24T09:33:45.527Z,95.95
2022-11-24T09:36:13.439Z,93.63
2022-11-24T09:38:41.194Z,94.59
2022-11-24T09:41:17.563Z,95.71
2022-11-24T09:43:58.713Z,95.63
2022-11-24T09:46:36.086Z,96.48
2022-11-24T09:49:06.151Z,94.91
2022-11-24T09:51:34.073Z,96.09
2022-11-24T09:54:09.548Z,96.09
2022-11-24T09:56:40.706Z,95.74
2022-11-24T09:59:14.233Z,94.73
2022-11-24T10:01:43.528Z,92.61
2022-11-24T10:04:27.747Z,92.83
2022-11-24T10:07:27.940Z,91.83
2022-11-24T10:09:58.805Z,91.90
2022-11-24T10:13:11.222Z,91.33
2022-11-24T10:15:56.766Z,91.78
2022-11-24T10:18:56.242Z,91.42
2022-11-24T10:22:16.001Z,92.55
2022-11-24T10:25:07.949Z,92.41
2022-11-24T10:27:44.490Z,91.14
2022-11-24T10:30:21.095Z,91.21
2022-11-24T10:32:54.184Z,89.02
2022-11-24T10:35:27.733Z,87.75
2022-11-24T10:38:06.605Z,88.24
2022-11-24T10:40:56.653Z,87.12
2022-11-24T10:43:27.974Z,88.81
2022-11-24T10:46:05.545Z,86.23
2022-11-24T10:48:40.795Z,85.50
2022-11-24T10:51:58.065Z,85.05
2022-11-24T10:54:25.428Z,86.56
2022-11-24T10:56:54.023Z,86.22
2022-11-24T10:59:27.707Z,86.82
2022-11-24T11:01:55.831Z,85.29
2022-11-24T11:04:27.842Z,86.56
2022-11-24T11:07:21.345Z,88.12
2022-11-24T11:09:49.118Z,89.91
2022-11-24T11:15:43.462Z,85.49
2022-11-24T11:18:16.472Z,83.62
2022-11-24T11:20:58.382Z,87.04
2022-11-24T11:23:28.553Z,86.08
2022-11-24T11:26:31.549Z,86.78
2022-11-24T11:34:49.256Z,89.95
2022-11-24T11:37:18.140Z,89.92
2022-11-24T11:39:50.653Z,87.85
2022-11-24T11:43:00.024Z,89.70
2022-11-24T11:45:29.342Z,90.27
2022-11-24T11:48:03.260Z,89.66
2022-11-24T11:51:06.519Z,90.08
2022-11-24T11:54:31.047Z,89.98
2022-11-24T11:57:03.829Z,90.31
2022-11-24T11:59:52.231Z,90.56
2022-11-24T12:02:19.380Z,90.85
2022-11-24T12:04:57.207Z,91.50
2022-11-24T12:07:51.993Z,91.13
2022-11-24T12:10:37.486Z,89.73
2022-11-24T12:13:04.483Z,89.70
2022-11-24T12:15:53.858Z,89.96
2022-11-24T12:18:48.520Z,90.40
2022-11-24T12:21:24.641Z,89.65
2022-11-24T12:24:21.587Z,88.87
2022-11-24T12:27:23.338Z,90.09
2022-11-24T12:30:09.633Z,89.73
2022-11-24T12:33:15.380Z,89.94
2022-11-24T12:35:48.792Z,90.20
2022-11-24T12:38:16.141Z,90.23
2022-11-24T12:41:39.689Z,90.83
2022-11-24T12:43:55.715Z,90.22
2022-11-24T12:46:34.847Z,89.63
2022-11-24T12:49:15.305Z,89.78
2022-11-24T12:51:58.125Z,89.91
2022-11-24T12:54:29.472Z,91.00
2022-11-24T12:57:15.974Z,90.80
2022-11-24T12:59:46.438Z,91.06
2022-11-24T13:02:25.853Z,91.36
2022-11-24T13:05:08.461Z,90.33
2022-11-24T13:07:56.107Z,91.20
2022-11-24T13:10:40.104Z,93.05
2022-11-24T13:13:12.569Z,92.34
2022-11-24T13:16:34.461Z,92.52
2022-11-24T13:18:51.363Z,91.89
2022-11-24T13:21:27.791Z,90.95
2022-11-24T13:23:58.431Z,92.74
2022-11-24T13:26:32.388Z,91.53
2022-11-24T13:29:13.454Z,91.95
2022-11-24T13:31:51.565Z,92.71
2022-11-24T13:34:43.313Z,92.34
2022-11-24T13:37:39.859Z,91.42
2022-11-24T13:40:13.407Z,92.04
2022-11-24T13:43:01.368Z,92.07
2022-11-24T13:45:41.646Z,92.28
2022-11-24T13:48:21.983Z,91.47
2022-11-24T13:50:49.642Z,91.56
2022-11-24T13:53:28.913Z,91.38
2022-11-24T13:56:03.453Z,90.85
2022-11-24T13:58:38.968Z,91.23
2022-11-24T14:01:26.130Z,92.09
2022-11-24T14:04:28.206Z,92.48
2022-11-24T14:06:52.259Z,91.52
2022-11-24T14:09:41.571Z,91.62
2022-11-24T14:12:15.925Z,91.91
2022-11-24T14:14:45.503Z,91.85
2022-11-24T14:17:28.621Z,92.40
2022-11-24T14:19:57.544Z,92.82
2022-11-24T14:22:31.934Z,93.48
2022-11-24T14:25:01.402Z,94.20
2022-11-24T14:27:35.901Z,94.98
2022-11-24T14:30:17.979Z,94.78
2022-11-24T14:32:59.193Z,95.65
2022-11-24T14:35:26.547Z,95.48
2022-11-24T14:37:54.131Z,95.55
2022-11-24T14:40:49.129Z,96.66
2022-11-24T14:43:33.099Z,96.42
2022-11-24T14:46:07.266Z,95.60
2022-11-24T14:48:39.775Z,96.29
2022-11-24T14:51:14.941Z,95.92
2022-11-24T14:53:44.996Z,94.87
2022-11-24T14:56:32.873Z,96.12
2022-11-24T14:59:00.820Z,96.17
2022-11-24T15:01:32.643Z,96.37
2022-11-24T15:04:26.488Z,96.53
2022-11-24T15:07:13.361Z,98.13
2022-11-24T15:09:51.794Z,98.31
2022-11-24T15:12:28.823Z,98.86
2022-11-24T15:15:18.286Z,98.54
2022-11-24T15:17:48.393Z,100.00
2022-11-24T15:20:26.863Z,100.00
2022-11-24T15:23:12.244Z,100.00
2022-11-24T15:25:39.854Z,100.00
2022-11-24T15:28:08.581Z,100.00
2022-11-24T15:30:36.800Z,100.00
2022-11-24T15:33:15.951Z,100.00
2022-11-24T15:35:43.726Z,100.00
2022-11-24T15:38:11.089Z,100.00
2022-11-24T15:40:39.402Z,100.00
2022-11-24T15:43:21.359Z,100.00
2022-11-24T15:45:48.960Z,100.00
2022-11-24T15:48:18.223Z,100.00
2022-11-24T15:50:47.012Z,100.00
2022-11-24T15:53:27.336Z,100.00
2022-11-24T15:55:56.396Z,100.00
2022-11-24T15:58:23.958Z,100.00
2022-11-24T16:00:53.466Z,100.00
2022-11-24T16:06:23.614Z,100.00
2022-11-24T16:08:51.999Z,100.00
2022-11-24T16:11:19.146Z,100.00
2022-11-24T16:13:51.945Z,100.00
2022-11-24T16:16:20.716Z,100.00
2022-11-24T16:18:48.339Z,100.00
2022-11-24T16:21:15.449Z,100.00
2022-11-24T16:23:42.844Z,100.00
2022-11-24T16:26:10.212Z,100.00
2022-11-24T16:28:37.289Z,100.00
2022-11-24T16:31:04.677Z,100.00
2022-11-24T16:33:31.828Z,100.00
2022-11-24T16:35:58.858Z,100.00
2022-11-24T16:38:26.165Z,100.00
2022-11-24T16:40:54.707Z,100.00
2022-11-24T16:43:22.111Z,100.00
2022-11-24T16:46:03.188Z,100.00
2022-11-24T16:48:35.573Z,100.00
2022-11-24T16:51:13.526Z,100.00
2022-11-24T16:53:41.202Z,100.00
2022-11-24T16:56:09.196Z,100.00
2022-11-24T16:58:40.620Z,100.00
2022-11-24T17:01:12.668Z,100.00
2022-11-24T17:03:40.653Z,100.00
2022-11-24T17:06:11.438Z,100.00
2022-11-24T17:08:40.683Z,100.00
2022-11-24T17:11:10.981Z,100.00
2022-11-24T17:13:38.949Z,100.00
2022-11-24T17:16:07.611Z,100.00
2022-11-24T17:18:35.437Z,100.00
2022-11-24T17:21:07.843Z,100.00
2022-11-24T17:23:38.082Z,100.00
2022-11-24T17:26:07.599Z,100.00
2022-11-24T17:28:35.709Z,100.00
2022-11-24T17:31:29.796Z,100.00
2022-11-24T17:33:58.451Z,100.00
2022-11-24T17:36:26.803Z,100.00
2022-11-24T17:38:54.415Z,100.00
2022-11-24T17:41:22.377Z,100.00
2022-11-24T17:43:50.597Z,100.00
2022-11-24T17:46:18.185Z,100.00
2022-11-24T17:48:46.953Z,100.00
2022-11-24T17:51:16.979Z,100.00
2022-11-24T17:53:46.704Z,100.00
2022-11-24T17:56:18.381Z,100.00
2022-11-24T17:58:45.903Z,100.00
2022-11-24T18:01:13.514Z,100.00
2022-11-24T18:03:41.742Z,100.00
2022-11-24T18:06:14.065Z,100.00
2022-11-24T18:08:43.764Z,100.00
2022-11-24T18:11:18.054Z,100.00
2022-11-24T18:13:58.565Z,100.00
2022-11-24T18:16:28.322Z,100.00
2022-11-24T18:19:07.940Z,100.00
2022-11-24T18:21:38.171Z,100.00
2022-11-24T18:24:06.779Z,100.00
2022-11-24T18:26:34.339Z,100.00
2022-11-24T18:29:01.413Z,100.00
2022-11-24T18:31:29.728Z,100.00
2022-11-24T18:33:56.977Z,100.00
2022-11-24T18:36:29.979Z,100.00
2022-11-24T18:39:03.112Z,100.00
2022-11-24T18:41:30.245Z,100.00
2022-11-24T18:43:57.576Z,100.00
2022-11-24T18:46:25.201Z,100.00
2022-11-24T18:48:53.176Z,100.00
2022-11-24T18:51:22.700Z,100.00
2022-11-24T18:53:54.348Z,100.00
2022-11-24T18:56:21.794Z,100.00
2022-11-24T18:58:53.343Z,100.00
2022-11-24T19:01:26.246Z,100.00
2022-11-24T19:03:58.511Z,100.00
2022-11-24T19:06:34.506Z,100.00
2022-11-24T19:09:07.262Z,100.00
2022-11-24T19:11:37.112Z,100.00
2022-11-24T19:14:06.531Z,100.00
2022-11-24T19:16:33.962Z,100.00
2022-11-24T19:19:02.665Z,100.00
2022-11-24T19:21:31.565Z,100.00
2022-11-24T19:24:04.514Z,100.00
2022-11-24T19:26:35.021Z,100.00
2022-11-24T19:29:03.406Z,100.00
2022-11-24T19:31:30.697Z,100.00
2022-11-24T19:33:59.712Z,100.00
2022-11-24T19:36:27.127Z,100.00
2022-11-24T19:38:56.219Z,100.00
2022-11-24T19:41:26.443Z,100.00
2022-11-24T19:43:53.797Z,100.00
2022-11-24T19:46:22.377Z,100.00
2022-11-24T19:48:51.135Z,100.00
2022-11-24T19:51:20.628Z,100.00
2022-11-24T19:53:48.095Z,100.00
2022-11-24T19:56:18.619Z,100.00
2022-11-24T19:58:46.498Z,100.00
2022-11-24T20:01:14.704Z,100.00
2022-11-24T20:03:43.414Z,100.00
2022-11-24T20:06:12.387Z,100.00
2022-11-24T20:08:40.491Z,100.00
2022-11-24T20:11:10.330Z,100.00
2022-11-24T20:13:39.115Z,100.00
2022-11-24T20:16:14.501Z,100.00
2022-11-24T20:18:44.834Z,100.00
2022-11-24T20:21:18.102Z,100.00
2022-11-24T20:23:46.941Z,100.00
2022-11-24T20:26:20.106Z,100.00
2022-11-24T20:28:47.642Z,100.00
2022-11-24T20:31:18.367Z,100.00
2022-11-24T20:33:46.336Z,100.00
2022-11-24T20:36:19.907Z,100.00
2022-11-24T20:38:48.034Z,100.00
2022-11-24T20:41:19.098Z,100.00
2022-11-24T20:43:47.812Z,100.00
2022-11-24T20:46:20.712Z,100.00
2022-11-24T20:48:48.336Z,100.00
2022-11-24T20:51:21.420Z,100.00
2022-11-24T20:53:55.973Z,100.00
2022-11-24T20:56:27.551Z,100.00
2022-11-24T20:58:55.849Z,100.00
2022-11-24T21:01:34.888Z,100.00
2022-11-24T21:04:02.925Z,100.00
2022-11-24T21:06:30.766Z,100.00
2022-11-24T21:09:03.406Z,100.00
2022-11-24T21:11:32.363Z,100.00
2022-11-24T21:14:00.296Z,100.00
2022-11-24T21:16:30.309Z,100.00
2022-11-24T21:19:00.184Z,100.00
2022-11-24T21:21:34.561Z,100.00
2022-11-24T21:24:07.043Z,100.00
2022-11-24T21:26:38.004Z,100.00
2022-11-24T21:29:06.703Z,100.00
2022-11-24T21:31:38.345Z,100.00
2022-11-24T21:34:07.463Z,100.00
2022-11-24T21:36:35.798Z,100.00
2022-11-24T21:39:04.125Z,100.00
2022-11-24T21:41:32.977Z,100.00
2022-11-24T21:44:00.094Z,100.00
2022-11-24T21:46:29.065Z,100.00
2022-11-24T21:48:56.402Z,100.00
2022-11-24T21:51:23.568Z,100.00
2022-11-24T21:53:50.709Z,100.00
2022-11-24T21:56:20.555Z,100.00
2022-11-24T21:58:50.153Z,100.00
2022-11-24T22:01:19.290Z,100.00
2022-11-24T22:03:46.893Z,100.00
2022-11-24T22:06:15.471Z,100.00
2022-11-24T22:08:42.503Z,100.00
2022-11-24T22:11:21.687Z,100.00
2022-11-24T22:13:49.620Z,100.00
2022-11-24T22:16:19.604Z,100.00
2022-11-24T22:18:47.700Z,100.00
2022-11-24T22:21:24.074Z,100.00
2022-11-24T22:23:54.925Z,100.00
2022-11-24T22:26:24.424Z,100.00
2022-11-24T22:28:53.274Z,100.00
2022-11-24T22:31:25.885Z,100.00
2022-11-24T22:33:54.620Z,100.00
2022-11-24T22:36:24.335Z,100.00
2022-11-24T22:38:56.572Z,100.00
2022-11-24T22:41:25.008Z,100.00
2022-11-24T22:43:52.363Z,100.00
2022-11-24T22:46:22.103Z,100.00
2022-11-24T22:48:52.829Z,100.00
2022-11-24T22:51:32.414Z,100.00
2022-11-24T22:54:02.626Z,100.00
2022-11-24T22:56:32.335Z,100.00
2022-11-24T22:59:01.158Z,100.00
2022-11-24T23:01:29.335Z,100.00
2022-11-24T23:03:56.633Z,100.00
2022-11-24T23:06:26.290Z,100.00
2022-11-24T23:08:54.050Z,100.00
2022-11-24T23:11:40.873Z,100.00
2022-11-24T23:14:13.286Z,100.00
2022-11-24T23:16:40.359Z,100.00
2022-11-24T23:19:07.857Z,100.00
2022-11-24T23:21:38.350Z,100.00
2022-11-24T23:24:06.658Z,100.00
2022-11-24T23:26:40.026Z,100.00
2022-11-24T23:29:08.176Z,100.00
2022-11-24T23:31:36.268Z,100.00
2022-11-24T23:34:04.023Z,100.00
2022-11-24T23:36:32.309Z,100.00
2022-11-24T23:39:08.647Z,100.00
2022-11-24T23:41:35.750Z,100.00
2022-11-24T23:44:03.568Z,100.00
2022-11-24T23:46:31.020Z,100.00
2022-11-24T23:48:58.452Z,100.00
2022-11-24T23:51:30.943Z,100.00
2022-11-24T23:53:59.538Z,100.00
2022-11-24T23:56:32.450Z,100.00
2022-11-24T23:59:00.842Z,100.00
